Aviation Digital Data Service (ADDS)

Output produced by METARs form (0901 UTC 30 April 2016)
found at http://aviationweather.gov/adds/metars/
 
KBPT 300853Z AUTO 15012G19KT 9SM BKN014 OVC022 25/23 A2966 RMK AO2 LTG DSNT NE SLP045 T02500228 53001